Flight Track Log - Related Links

Times and Time Zones

All times are in EDT time to prevent confusion due to time zone crossing. See the EZY2759 flight status page for this flight to view local times or setup timezone preferences in your user account.

Time Position Orientation Groundspeed Altitude Reporting Facility
EDT Latitude Longitude Course Direction KTS MPH feet Rate Location/Type
Thu 12:51:00 AM 45.0927 7.8131 230° Southwest  Level Estimated
Thu 12:52:00 AM 45.0435 7.7308 230° Southwest  Level Estimated
Thu 12:53:00 AM 44.9942 7.6486 230° Southwest  Level Estimated
Thu 12:54:00 AM 44.9448 7.5666 230° Southwest  Level Estimated
Thu 12:55:00 AM 44.8954 7.4847 230° Southwest  Level Estimated
Thu 12:56:00 AM 44.8459 7.4029 230° Southwest  Level Estimated
Thu 12:57:00 AM 44.7963 7.3213 229° Southwest  Level Estimated
Thu 12:58:00 AM 44.7467 7.2399 229° Southwest  Level Estimated
Thu 12:59:00 AM 44.6939 7.1534 229° Southwest  Level Estimated
Thu 01:00:00 AM 44.6411 7.0672 229° Southwest  Level Estimated
Thu 01:01:00 AM 44.5882 6.9811 229° Southwest  Level Estimated
Thu 01:02:00 AM 44.5352 6.8951 229° Southwest  Level Estimated
Thu 01:03:00 AM 44.4779 6.8024 229° Southwest  Level Estimated
Thu 01:04:00 AM 44.4205 6.7098 229° Southwest  Level Estimated
Thu 01:05:00 AM 44.3630 6.6175 229° Southwest  Level Estimated
Thu 01:06:00 AM 44.3055 6.5253 229° Southwest  Level Estimated
Thu 01:07:00 AM 44.2478 6.4333 229° Southwest  Level Estimated
Thu 01:08:00 AM 44.1901 6.3415 229° Southwest  Level Estimated
Thu 01:09:00 AM 44.1323 6.2498 229° Southwest  Level Estimated
Thu 01:10:00 AM 44.0745 6.1583 229° Southwest  Level Estimated
Thu 01:11:00 AM 44.0166 6.0670 229° Southwest  Level Estimated
Thu 01:12:00 AM 43.9586 5.9759 229° Southwest  Level Estimated
Thu 01:13:00 AM 43.9005 5.8850 228° Southwest  Level Estimated
Thu 01:14:00 AM 43.8424 5.7942 228° Southwest  Level Estimated
Thu 01:15:00 AM 43.7841 5.7036 228° Southwest  Level Estimated
Thu 01:16:00 AM 43.7259 5.6132 228° Southwest  Level Estimated
Thu 01:17:00 AM 43.6675 5.5230 228° Southwest  Level Estimated
Thu 01:18:00 AM 43.6091 5.4330 228° Southwest  Level Estimated
Thu 01:19:00 AM 43.5506 5.3431 228° Southwest  Level Estimated
Thu 01:20:00 AM 43.4920 5.2534 228° Southwest  Level Estimated
Thu 01:21:00 AM 43.4334 5.1639 228° Southwest  Level Estimated
Thu 01:22:00 AM 43.3747 5.0745 228° Southwest  Level Estimated
Thu 01:23:00 AM 43.3159 4.9853 228° Southwest  Level Estimated
Thu 01:24:00 AM 43.2570 4.8963 228° Southwest  Level Estimated
Thu 01:25:00 AM 43.1981 4.8075 228° Southwest  Level Estimated
Thu 01:26:00 AM 43.1391 4.7188 228° Southwest  Level Estimated
Thu 01:27:00 AM 43.0801 4.6303 228° Southwest  Level Estimated
Thu 01:28:00 AM 43.0210 4.5420 228° Southwest  Level Estimated
Thu 01:29:00 AM 42.9618 4.4538 227° Southwest  Level Estimated
Thu 01:30:00 AM 42.9025 4.3658 227° Southwest  Level Estimated
Thu 01:31:00 AM 42.8432 4.2780 227° Southwest  Level Estimated
Thu 01:32:00 AM 42.7838 4.1904 227° Southwest  Level Estimated
Thu 01:33:00 AM 42.7244 4.1029 227° Southwest  Level Estimated
Thu 01:34:00 AM 42.6648 4.0156 227° Southwest  Level Estimated
Thu 01:35:00 AM 42.6053 3.9284 227° Southwest  Level Estimated
Thu 01:36:00 AM 42.5456 3.8414 227° Southwest  Level Estimated
Thu 01:37:00 AM 42.4859 3.7546 227° Southwest  Level Estimated
Thu 01:38:00 AM 42.4261 3.6680 227° Southwest  Level Estimated
Thu 01:39:00 AM 42.3663 3.5815 227° Southwest  Level Estimated
Thu 01:40:00 AM 42.3064 3.4952 227° Southwest  Level Estimated
Thu 01:41:00 AM 42.2464 3.4090 227° Southwest  Level Estimated
Thu 01:42:00 AM 42.1863 3.3230 227° Southwest  Level Estimated
Thu 01:43:00 AM 42.1262 3.2372 227° Southwest  Level Estimated
Thu 01:44:00 AM 42.0661 3.1515 227° Southwest  Level Estimated
Thu 01:45:00 AM 42.0058 3.0660 227° Southwest  Level Estimated
Thu 01:46:00 AM 41.9455 2.9807 226° Southwest  Level Estimated
Thu 01:47:00 AM 41.8852 2.8955 226° Southwest  Level Estimated
Thu 01:48:00 AM 41.8247 2.8105 226° Southwest  Level Estimated
Thu 01:49:00 AM 41.7642 2.7256 226° Southwest  Level Estimated
Thu 01:50:00 AM 41.7037 2.6409 226° Southwest  Level Estimated
Thu 01:51:00 AM 41.6431 2.5564 226° Southwest  Level Estimated
Thu 01:52:00 AM 41.5824 2.4720 226° Southwest  Level Estimated
Thu 01:53:00 AM 41.5217 2.3878 226° Southwest  Level Estimated
Thu 01:54:00 AM 41.4609 2.3037 226° Southwest  Level Estimated
Thu 01:55:00 AM 41.4000 2.2198 226° Southwest  Level Estimated
Thu 01:56:00 AM 41.3391 2.1361 226° Southwest  Level Estimated
Thu 01:57:00 AM 41.2971 2.0785 226° Southwest  Level Estimated
Thu 01:58:00 AM 41.2971 2.0785 124° Southeast  Level Estimated
Thu 01:59:00 AM 41.2971 2.0785 124° Southeast  Level Estimated
Thu 02:00:00 AM 41.2971 2.0785 124° Southeast  Level Estimated
Thu 02:01:00 AM 41.2971 2.0785 124° Southeast  Level Estimated
Thu 02:02:00 AM 41.2971 2.0785 124° Southeast  Level Estimated
Thu 02:03:00 AM 41.2971 2.0785 124° Southeast  Level Estimated
Thu 02:04:00 AM 41.2971 2.0785 124° Southeast  Level Estimated
Thu 02:05:00 AM 41.2971 2.0785 124° Southeast  Level Estimated
Thu 02:06:00 AM 41.2971 2.0785 124° Southeast  Level Estimated
Thu 02:07:00 AM 41.2971 2.0785 124° Southeast  Level Estimated
Thu 02:08:00 AM 41.2971 2.0785 124° Southeast  Level Estimated
Thu 02:09:00 AM 41.2971 2.0785 124° Southeast  Level Estimated

Login

Don't have an account? Register now (free) for customized features, flight alerts, and more!